Time;durP1;ratioP1;P1;durP2;ratioP2;P2;SDS_P1;SDS_P2;PMS_P1;PMS_P2;Temp;Humidity;BMP_temperature;BMP_pressure;BME280_temperature;BME280_humidity;BME280_pressure;Samples;Min_cycle;Max_cycle;Signal;HPM_P1;HPM_P2
2022/09/14 00:01:32;;;;;;;10.80;8.23;;;17.80;99.90;;;;;;5035707;28;20092;-72
2022/09/14 00:04:11;;;;;;;11.85;8.00;;;17.80;99.90;;;;;;5036983;28;20075;-72
2022/09/14 00:06:39;;;;;;;9.80;7.55;;;17.80;99.90;;;;;;5016320;28;20061;-72
2022/09/14 00:09:07;;;;;;;12.85;7.40;;;17.80;99.90;;;;;;5029996;28;20511;-74
2022/09/14 00:11:35;;;;;;;11.15;8.18;;;17.90;99.90;;;;;;5030885;28;20046;-72
2022/09/14 00:14:04;;;;;;;9.77;7.47;;;17.80;99.90;;;;;;5033700;28;20517;-71
2022/09/14 00:16:35;;;;;;;11.70;7.78;;;17.80;99.90;;;;;;5025552;28;20107;-72
2022/09/14 00:19:32;;;;;;;11.23;7.55;;;17.80;99.90;;;;;;5029187;28;20053;-72
2022/09/14 00:22:00;;;;;;;11.25;7.97;;;17.80;99.90;;;;;;5040266;28;20060;-71
2022/09/14 00:24:31;;;;;;;10.60;7.68;;;17.80;99.90;;;;;;5030104;28;20050;-71
2022/09/14 00:26:58;;;;;;;10.15;7.60;;;17.80;99.90;;;;;;5036753;28;20496;-70
2022/09/14 00:29:25;;;;;;;10.65;7.72;;;17.80;99.90;;;;;;5015362;28;20065;-71
2022/09/14 00:31:53;;;;;;;11.38;7.13;;;17.70;99.90;;;;;;5022095;28;20567;-72
2022/09/14 00:34:20;;;;;;;11.65;7.60;;;17.70;99.90;;;;;;5010673;28;20115;-72
2022/09/14 00:36:49;;;;;;;10.95;7.28;;;17.70;99.90;;;;;;5031790;28;20037;-72
2022/09/14 00:39:19;;;;;;;8.73;7.07;;;17.70;99.90;;;;;;5020745;28;20072;-73
2022/09/14 00:41:48;;;;;;;12.70;7.72;;;17.70;99.90;;;;;;5020434;28;20040;-72
2022/09/14 00:44:15;;;;;;;13.63;7.93;;;17.70;99.90;;;;;;5020724;28;20112;-73
2022/09/14 00:46:45;;;;;;;12.70;8.23;;;17.80;99.90;;;;;;5035858;28;20415;-72
2022/09/14 00:49:35;;;;;;;10.57;7.50;;;17.80;99.90;;;;;;5024934;28;20049;-72
2022/09/14 00:52:17;;;;;;;14.70;7.57;;;17.70;99.90;;;;;;5021535;28;20037;-72
2022/09/14 00:54:49;;;;;;;;;;;17.70;99.90;;;;;;5036399;28;20404;-72
2022/09/14 00:57:18;;;;;;;14.10;7.63;;;17.80;99.90;;;;;;5033196;28;19925;-71
2022/09/14 00:59:48;;;;;;;12.55;7.07;;;17.70;99.90;;;;;;5028055;28;20373;-72
2022/09/14 01:02:18;;;;;;;9.48;7.45;;;17.70;99.90;;;;;;5027440;28;20053;-71
2022/09/14 01:04:46;;;;;;;12.00;7.50;;;17.70;99.90;;;;;;5034981;28;20060;-73
2022/09/14 01:07:29;;;;;;;10.45;7.45;;;17.60;99.90;;;;;;5021083;28;20049;-71
2022/09/14 01:10:25;;;;;;;10.55;8.07;;;17.60;99.90;;;;;;5031673;28;20088;-73
2022/09/14 01:12:58;;;;;;;10.77;7.15;;;17.60;99.90;;;;;;5030014;28;20045;-73
2022/09/14 01:15:44;;;;;;;9.10;7.38;;;17.50;99.90;;;;;;5033848;28;20128;-72
2022/09/14 01:18:27;;;;;;;9.88;7.32;;;17.50;99.90;;;;;;5035040;28;20550;-72
2022/09/14 01:21:11;;;;;;;10.75;7.88;;;17.50;99.90;;;;;;5028026;28;20499;-72
2022/09/14 01:23:59;;;;;;;10.90;7.80;;;17.50;99.90;;;;;;5017957;28;20462;-72
2022/09/14 01:26:59;;;;;;;11.15;7.75;;;17.50;99.90;;;;;;5031356;28;20558;-72
2022/09/14 01:29:36;;;;;;;15.45;8.18;;;17.50;99.90;;;;;;5028182;28;20041;-72
2022/09/14 01:32:21;;;;;;;11.43;7.70;;;17.50;99.90;;;;;;5029144;28;20041;-71
2022/09/14 01:34:53;;;;;;;12.70;8.45;;;17.50;99.90;;;;;;5018513;28;20069;-72
2022/09/14 01:37:58;;;;;;;10.95;7.60;;;17.50;99.90;;;;;;5027431;28;20046;-73
2022/09/14 01:40:38;;;;;;;9.63;7.35;;;17.50;99.90;;;;;;5018740;28;20045;-73
2022/09/14 01:43:29;;;;;;;12.40;8.02;;;17.50;99.90;;;;;;5032293;28;20095;-72
2022/09/14 01:46:12;;;;;;;11.85;8.15;;;17.50;99.90;;;;;;5023783;28;20049;-72
2022/09/14 01:49:01;;;;;;;9.60;7.70;;;17.50;99.90;;;;;;5026726;28;20042;-73
2022/09/14 01:51:43;;;;;;;13.25;7.65;;;17.50;99.90;;;;;;5016202;28;20042;-72
2022/09/14 01:54:22;;;;;;;;;;;17.50;99.90;;;;;;5023985;28;20062;-72
2022/09/14 01:56:54;;;;;;;10.55;7.63;;;17.50;99.90;;;;;;5029555;28;20379;-72
2022/09/14 01:59:30;;;;;;;9.73;7.97;;;17.50;99.90;;;;;;5013612;28;20864;-72
2022/09/14 02:02:10;;;;;;;13.30;7.50;;;17.40;99.90;;;;;;5021739;28;20045;-72
2022/09/14 02:04:52;;;;;;;11.10;8.38;;;17.40;99.90;;;;;;5030915;28;20057;-72
2022/09/14 02:07:19;;;;;;;11.27;7.95;;;17.40;99.90;;;;;;5026344;28;20052;-72
2022/09/14 02:09:49;;;;;;;12.70;7.97;;;17.40;99.90;;;;;;5029513;28;20060;-72
2022/09/14 02:12:17;;;;;;;11.25;8.23;;;17.30;99.90;;;;;;5026498;28;20088;-72
2022/09/14 02:14:45;;;;;;;12.73;8.77;;;17.30;99.90;;;;;;5024151;28;20532;-72
2022/09/14 02:17:13;;;;;;;15.45;8.30;;;17.20;99.90;;;;;;5019812;28;20508;-72
2022/09/14 02:19:48;;;;;;;10.30;7.68;;;17.20;99.90;;;;;;5003513;28;20045;-72
2022/09/14 02:22:16;;;;;;;10.95;8.77;;;17.30;99.90;;;;;;5031697;28;20479;-72
2022/09/14 02:24:43;;;;;;;10.25;7.65;;;17.30;99.90;;;;;;5026058;28;20048;-72
2022/09/14 02:27:11;;;;;;;10.70;7.45;;;17.30;99.90;;;;;;5027026;28;20049;-72
2022/09/14 02:29:38;;;;;;;10.55;7.90;;;17.20;99.90;;;;;;5012834;28;20606;-72
2022/09/14 02:32:32;;;;;;;13.60;8.35;;;17.30;99.90;;;;;;5023481;28;20120;-72
2022/09/14 02:35:24;;;;;;;9.40;7.50;;;17.20;99.90;;;;;;5027957;28;20071;-72
2022/09/14 02:38:05;;;;;;;12.90;7.82;;;17.20;99.90;;;;;;5030838;28;20053;-72
2022/09/14 02:40:32;;;;;;;12.30;8.05;;;17.10;99.90;;;;;;5030447;28;20080;-72
2022/09/14 02:43:24;;;;;;;11.93;8.40;;;17.20;99.90;;;;;;5014546;28;20499;-71
2022/09/14 02:45:52;;;;;;;;;;;17.10;99.90;;;;;;5022567;28;20043;-72
2022/09/14 02:48:25;;;;;;;13.13;8.38;;;17.10;99.90;;;;;;5031014;28;19924;-72
2022/09/14 02:51:25;;;;;;;12.50;8.63;;;17.10;99.90;;;;;;5021337;28;20397;-72
2022/09/14 02:54:00;;;;;;;11.52;8.15;;;17.10;99.90;;;;;;5024944;28;20046;-72
2022/09/14 02:56:28;;;;;;;14.35;8.77;;;17.10;99.90;;;;;;5026453;28;20041;-72
2022/09/14 02:58:55;;;;;;;13.35;8.52;;;17.10;99.90;;;;;;5022650;28;20060;-72
2022/09/14 03:01:24;;;;;;;11.82;8.07;;;17.10;99.90;;;;;;5024082;28;20514;-73
2022/09/14 03:03:51;;;;;;;10.80;8.20;;;17.10;99.90;;;;;;5020451;28;20045;-72
2022/09/14 03:06:18;;;;;;;12.10;8.15;;;17.10;99.90;;;;;;5014828;28;20149;-72
2022/09/14 03:08:46;;;;;;;13.10;8.45;;;17.10;99.90;;;;;;5027836;28;20052;-70
2022/09/14 03:11:13;;;;;;;10.43;7.80;;;17.20;99.90;;;;;;5034957;28;20498;-70
2022/09/14 03:13:41;;;;;;;9.77;7.85;;;17.20;99.90;;;;;;5038706;28;20476;-70
2022/09/14 03:16:11;;;;;;;10.57;6.93;;;17.20;99.90;;;;;;5034104;28;20479;-70
2022/09/14 03:18:39;;;;;;;13.10;8.10;;;17.20;99.90;;;;;;5030934;28;20560;-70
2022/09/14 03:21:14;;;;;;;11.73;8.50;;;17.20;99.90;;;;;;5014610;28;20459;-71
2022/09/14 03:23:46;;;;;;;10.55;7.82;;;17.20;99.90;;;;;;4990269;28;20421;-70
2022/09/14 03:26:24;;;;;;;11.15;8.85;;;17.20;99.90;;;;;;5031957;28;20161;-70
2022/09/14 03:29:01;;;;;;;10.85;7.85;;;17.20;99.90;;;;;;5033803;28;20053;-70
2022/09/14 03:31:28;;;;;;;11.68;8.68;;;17.20;99.90;;;;;;5044993;28;20060;-69
2022/09/14 03:33:57;;;;;;;11.80;8.50;;;17.20;99.90;;;;;;5038984;28;20453;-70
2022/09/14 03:36:27;;;;;;;11.50;8.32;;;17.20;99.90;;;;;;5016604;28;20048;-69
2022/09/14 03:38:56;;;;;;;12.63;9.18;;;17.20;99.90;;;;;;5038137;28;20038;-69
2022/09/14 03:41:24;;;;;;;12.43;9.07;;;17.10;99.90;;;;;;5033420;28;20567;-69
2022/09/14 03:43:52;;;;;;;12.30;8.88;;;17.10;99.90;;;;;;5035328;28;20052;-69
2022/09/14 03:46:21;;;;;;;13.20;8.75;;;17.10;99.90;;;;;;5031093;28;20501;-68
2022/09/14 03:48:49;;;;;;;12.00;9.02;;;17.10;99.90;;;;;;5040737;28;20515;-69
2022/09/14 03:51:17;;;;;;;12.02;8.90;;;17.10;99.90;;;;;;5026912;28;20038;-69
2022/09/14 03:53:45;;;;;;;13.32;9.60;;;17.10;99.90;;;;;;5036515;28;20044;-69
2022/09/14 03:56:15;;;;;;;15.93;10.93;;;17.10;99.90;;;;;;5031974;28;20124;-68
2022/09/14 03:58:44;;;;;;;11.73;9.40;;;17.10;99.90;;;;;;5035530;28;20126;-69
2022/09/14 04:01:14;;;;;;;13.63;9.13;;;17.10;99.90;;;;;;5032833;28;20511;-69
2022/09/14 04:03:43;;;;;;;14.23;10.40;;;17.10;99.90;;;;;;5033011;28;20051;-68
2022/09/14 04:06:11;;;;;;;13.20;10.07;;;17.10;99.90;;;;;;5020886;28;20100;-69
2022/09/14 04:08:40;;;;;;;15.15;9.80;;;17.10;99.90;;;;;;5042133;28;20781;-69
2022/09/14 04:11:22;;;;;;;13.52;10.30;;;17.10;99.90;;;;;;5031336;28;20168;-69
2022/09/14 04:13:50;;;;;;;16.17;9.63;;;17.10;99.90;;;;;;5018035;28;20424;-69
2022/09/14 04:16:20;;;;;;;14.35;10.13;;;17.10;99.90;;;;;;5045657;28;20487;-69
2022/09/14 04:18:51;;;;;;;14.35;11.10;;;17.10;99.90;;;;;;5038769;28;20041;-69
2022/09/14 04:21:21;;;;;;;14.95;9.40;;;17.10;99.90;;;;;;5019834;28;20060;-69
2022/09/14 04:23:52;;;;;;;12.48;9.95;;;17.20;99.90;;;;;;5031544;28;20579;-69
2022/09/14 04:26:40;;;;;;;13.95;10.20;;;17.20;99.90;;;;;;5026751;28;20046;-70
2022/09/14 04:29:09;;;;;;;12.98;9.93;;;17.10;99.90;;;;;;5020881;28;20495;-70
2022/09/14 04:31:36;;;;;;;14.80;11.43;;;17.10;99.90;;;;;;5036238;28;20423;-70
2022/09/14 04:34:04;;;;;;;16.92;11.00;;;17.10;99.90;;;;;;5045670;28;20056;-70
2022/09/14 04:36:31;;;;;;;15.98;11.60;;;17.20;99.90;;;;;;5024087;28;20492;-69
2022/09/14 04:39:01;;;;;;;13.48;10.25;;;17.10;99.90;;;;;;5022400;28;20057;-69
2022/09/14 04:41:29;;;;;;;13.45;10.43;;;17.20;99.90;;;;;;5028024;28;20050;-70
2022/09/14 04:43:57;;;;;;;15.63;12.07;;;17.10;99.90;;;;;;5032679;28;20050;-68
2022/09/14 04:46:27;;;;;;;13.30;10.07;;;17.10;99.90;;;;;;5031022;28;20053;-71
2022/09/14 04:48:55;;;;;;;15.55;10.48;;;17.10;99.90;;;;;;5020484;28;20160;-70
2022/09/14 04:51:25;;;;;;;14.88;10.40;;;17.10;99.90;;;;;;5007391;28;20049;-70
2022/09/14 04:53:58;;;;;;;14.68;10.18;;;17.10;99.90;;;;;;5022690;28;20048;-71
2022/09/14 04:56:27;;;;;;;13.48;11.10;;;17.10;99.90;;;;;;5032025;28;20042;-71
2022/09/14 04:58:59;;;;;;;15.13;11.25;;;17.10;99.90;;;;;;5046617;28;20090;-71
2022/09/14 05:01:29;;;;;;;14.82;10.88;;;17.10;99.90;;;;;;5026558;28;20049;-70
2022/09/14 05:03:57;;;;;;;15.25;10.85;;;17.10;99.90;;;;;;5033720;28;20053;-71
2022/09/14 05:06:27;;;;;;;14.40;12.30;;;17.10;99.90;;;;;;5010193;28;20049;-71
2022/09/14 05:08:55;;;;;;;13.73;9.98;;;17.10;99.90;;;;;;5035942;28;20053;-70
2022/09/14 05:11:24;;;;;;;13.80;10.93;;;17.10;99.90;;;;;;5024774;28;20088;-72
2022/09/14 05:13:52;;;;;;;13.27;10.27;;;17.10;99.90;;;;;;5009497;28;20521;-71
2022/09/14 05:16:21;;;;;;;12.77;9.52;;;17.00;99.90;;;;;;5010118;28;20042;-71
2022/09/14 05:18:50;;;;;;;17.02;10.20;;;17.00;99.90;;;;;;5014003;28;20045;-71
2022/09/14 05:21:19;;;;;;;12.50;10.05;;;17.10;99.90;;;;;;5032873;28;20064;-71
2022/09/14 05:23:51;;;;;;;16.20;10.60;;;17.10;99.90;;;;;;5036850;28;20497;-71
2022/09/14 05:26:19;;;;;;;15.30;10.85;;;17.10;99.90;;;;;;5038590;28;20845;-72
2022/09/14 05:28:51;;;;;;;12.65;10.27;;;17.10;99.90;;;;;;5030414;28;20424;-72
2022/09/14 05:31:19;;;;;;;13.93;10.15;;;17.10;99.90;;;;;;5044662;28;20041;-73
2022/09/14 05:33:46;;;;;;;15.00;10.48;;;17.20;99.90;;;;;;5038813;28;20029;-72
2022/09/14 05:36:14;;;;;;;15.75;10.02;;;17.20;99.90;;;;;;5029262;28;20095;-72
2022/09/14 05:38:42;;;;;;;14.45;10.07;;;17.20;99.90;;;;;;5019395;28;20045;-72
2022/09/14 05:41:11;;;;;;;11.95;9.63;;;17.20;99.90;;;;;;5029621;28;20529;-72
2022/09/14 05:43:39;;;;;;;16.27;10.93;;;17.20;99.90;;;;;;5029429;28;20049;-73
2022/09/14 05:46:10;;;;;;;16.05;10.85;;;17.30;99.90;;;;;;5011343;28;20049;-73
2022/09/14 05:48:39;;;;;;;13.75;10.05;;;17.30;99.90;;;;;;5031266;28;20044;-69
2022/09/14 05:51:13;;;;;;;14.25;10.48;;;17.40;99.90;;;;;;5011432;28;20038;-72
2022/09/14 05:53:41;;;;;;;14.30;10.65;;;17.40;99.90;;;;;;5008300;28;20511;-71
2022/09/14 05:56:11;;;;;;;15.02;11.57;;;17.40;99.90;;;;;;5013088;28;20052;-72
2022/09/14 05:58:40;;;;;;;13.10;10.40;;;17.40;99.90;;;;;;5017391;28;20112;-72
2022/09/14 06:01:15;;;;;;;14.90;10.52;;;17.50;99.90;;;;;;5022217;28;20545;-69
2022/09/14 06:03:44;;;;;;;14.23;10.90;;;17.50;99.90;;;;;;5028281;28;20041;-73
2022/09/14 06:06:14;;;;;;;16.23;10.65;;;17.50;99.90;;;;;;5020730;28;20049;-73
2022/09/14 06:08:42;;;;;;;15.10;10.85;;;17.50;99.90;;;;;;5042548;28;20041;-72
2022/09/14 06:11:14;;;;;;;14.77;10.20;;;17.50;99.90;;;;;;5039349;28;20074;-71
2022/09/14 06:13:42;;;;;;;15.68;10.70;;;17.50;99.90;;;;;;5028419;28;20455;-72
2022/09/14 06:16:12;;;;;;;15.43;10.68;;;17.40;99.90;;;;;;5041569;28;20075;-70
2022/09/14 06:18:41;;;;;;;15.00;10.40;;;17.40;99.90;;;;;;5041681;28;20046;-73
2022/09/14 06:21:11;;;;;;;14.48;10.43;;;17.40;99.90;;;;;;5012238;28;20045;-73
2022/09/14 06:23:38;;;;;;;14.77;8.85;;;17.40;99.90;;;;;;5020757;28;20045;-73
2022/09/14 06:26:05;;;;;;;12.70;9.20;;;17.50;99.90;;;;;;5037462;28;20059;-73
2022/09/14 06:28:34;;;;;;;13.32;8.82;;;17.50;99.90;;;;;;5021003;28;20440;-72
2022/09/14 06:31:03;;;;;;;12.25;9.63;;;17.60;99.90;;;;;;5021952;28;20056;-74
2022/09/14 06:33:30;;;;;;;15.95;9.57;;;17.60;99.90;;;;;;5039652;28;20040;-74
2022/09/14 06:36:01;;;;;;;15.50;10.43;;;17.70;99.90;;;;;;5042783;28;20049;-73
2022/09/14 06:38:28;;;;;;;19.45;13.45;;;17.60;99.90;;;;;;5035283;28;20450;-73
2022/09/14 06:40:58;;;;;;;13.13;10.15;;;17.60;99.90;;;;;;5035232;28;20045;-73
2022/09/14 06:43:27;;;;;;;14.30;9.63;;;17.50;99.90;;;;;;5026983;28;20045;-74
2022/09/14 06:46:05;;;;;;;14.02;9.35;;;17.50;99.90;;;;;;5039495;28;20061;-73
2022/09/14 06:48:36;;;;;;;12.40;8.80;;;17.40;99.90;;;;;;5042762;28;20491;-73
2022/09/14 06:51:22;;;;;;;14.02;7.25;;;17.50;99.90;;;;;;5028553;28;20045;-72
2022/09/14 06:53:50;;;;;;;11.27;8.02;;;17.50;99.90;;;;;;5035791;28;20118;-72
2022/09/14 06:56:17;;;;;;;12.13;7.22;;;17.50;99.90;;;;;;5033733;28;20515;-73
2022/09/14 06:58:45;;;;;;;12.32;7.97;;;17.40;99.90;;;;;;5033977;28;20053;-74
2022/09/14 07:01:15;;;;;;;10.68;7.82;;;17.40;99.90;;;;;;5031706;28;20050;-74
2022/09/14 07:03:43;;;;;;;10.43;7.38;;;17.40;99.90;;;;;;5038280;28;20051;-73
2022/09/14 07:06:15;;;;;;;10.50;7.18;;;17.40;99.90;;;;;;5032421;28;20077;-73
2022/09/14 07:08:43;;;;;;;12.65;7.30;;;17.40;99.90;;;;;;5018808;28;20045;-72
2022/09/14 07:11:12;;;;;;;10.02;7.45;;;17.40;99.90;;;;;;5031970;28;20081;-71
2022/09/14 07:13:40;;;;;;;15.57;7.95;;;17.40;99.90;;;;;;5034213;28;20499;-73
2022/09/14 07:16:07;;;;;;;9.85;6.70;;;17.40;99.90;;;;;;5048894;28;20056;-73
2022/09/14 07:18:35;;;;;;;12.95;7.00;;;17.40;99.90;;;;;;5042888;28;20051;-74
2022/09/14 07:21:17;;;;;;;10.77;7.20;;;17.50;99.90;;;;;;5041931;28;20549;-73
2022/09/14 07:23:45;;;;;;;;;;;17.40;99.90;;;;;;5021063;28;20085;-67
2022/09/14 07:26:14;;;;;;;13.80;7.65;;;17.50;99.90;;;;;;5035585;28;20439;-66
2022/09/14 07:28:43;;;;;;;11.02;7.03;;;17.50;99.90;;;;;;5022691;28;20041;-67
2022/09/14 07:31:26;;;;;;;10.77;7.63;;;17.60;99.90;;;;;;5019300;28;20061;-66
2022/09/14 07:33:56;;;;;;;11.98;6.90;;;17.60;99.90;;;;;;5039183;28;20072;-67
2022/09/14 07:36:24;;;;;;;9.57;6.72;;;17.80;99.90;;;;;;5040084;28;20038;-67
2022/09/14 07:38:52;;;;;;;9.93;6.88;;;17.80;99.90;;;;;;5027363;28;20523;-67
2022/09/14 07:41:21;;;;;;;11.48;7.30;;;17.90;99.90;;;;;;5037831;28;20122;-68
2022/09/14 07:43:53;;;;;;;12.07;7.30;;;17.80;99.90;;;;;;5045630;28;20064;-66
2022/09/14 07:46:20;;;;;;;;;;;17.90;99.90;;;;;;5029880;28;20515;-65
2022/09/14 07:48:53;;;;;;;9.43;6.70;;;17.80;99.90;;;;;;5031355;28;20387;-66
2022/09/14 07:51:21;;;;;;;10.70;6.68;;;17.90;99.90;;;;;;5040836;28;20045;-66
2022/09/14 07:53:48;;;;;;;9.05;7.10;;;18.00;99.90;;;;;;5044836;28;20041;-66
2022/09/14 07:56:16;;;;;;;9.88;7.00;;;18.10;99.90;;;;;;5043680;28;20103;-66
2022/09/14 07:58:44;;;;;;;10.75;6.25;;;18.10;99.90;;;;;;5049485;28;20037;-65
2022/09/14 08:01:14;;;;;;;11.82;6.75;;;18.10;99.90;;;;;;5041696;28;20412;-67
2022/09/14 08:03:42;;;;;;;11.05;6.50;;;18.10;99.90;;;;;;5030947;28;20783;-65
2022/09/14 08:06:13;;;;;;;10.65;6.72;;;18.20;99.90;;;;;;5023714;28;20554;-66
2022/09/14 08:08:43;;;;;;;9.70;6.07;;;18.20;99.90;;;;;;5022306;28;20090;-66
2022/09/14 08:11:13;;;;;;;9.20;6.10;;;18.20;99.90;;;;;;5031426;28;20453;-66
2022/09/14 08:13:43;;;;;;;8.07;6.10;;;18.20;99.90;;;;;;5016610;28;20038;-67
2022/09/14 08:16:11;;;;;;;11.38;7.10;;;18.20;99.90;;;;;;5018225;28;20117;-67
2022/09/14 08:18:39;;;;;;;12.23;6.45;;;18.30;99.90;;;;;;5015853;28;20114;-66
2022/09/14 08:21:11;;;;;;;11.52;7.47;;;18.30;99.90;;;;;;5028978;28;20049;-66
2022/09/14 08:23:38;;;;;;;;;;;18.20;99.90;;;;;;5041753;28;20475;-66
2022/09/14 08:26:11;;;;;;;13.73;7.60;;;18.20;99.90;;;;;;5035550;28;19929;-67
2022/09/14 08:28:39;;;;;;;10.07;7.70;;;18.20;99.90;;;;;;5035542;28;20041;-67
2022/09/14 08:31:09;;;;;;;11.30;6.63;;;18.20;99.90;;;;;;5036405;28;20566;-66
2022/09/14 08:33:40;;;;;;;13.75;8.52;;;18.20;99.90;;;;;;5041780;28;20044;-66
2022/09/14 08:36:09;;;;;;;13.50;8.23;;;18.20;99.90;;;;;;5023960;28;20065;-66
2022/09/14 08:38:37;;;;;;;14.63;7.60;;;18.30;99.90;;;;;;5022925;28;20038;-66
2022/09/14 08:41:17;;;;;;;10.85;8.23;;;18.30;99.90;;;;;;5009594;28;20408;-68
2022/09/14 08:43:44;;;;;;;10.00;7.63;;;18.30;99.90;;;;;;5033030;28;20041;-67
2022/09/14 08:46:28;;;;;;;10.07;7.88;;;18.30;99.90;;;;;;5035842;28;20136;-66
2022/09/14 08:48:57;;;;;;;12.13;8.10;;;18.30;99.90;;;;;;5029400;28;20444;-66
2022/09/14 08:51:25;;;;;;;12.05;7.53;;;18.40;99.90;;;;;;5036566;28;20042;-66
2022/09/14 08:53:56;;;;;;;9.27;6.90;;;18.50;99.90;;;;;;5041939;28;20506;-66
2022/09/14 08:56:30;;;;;;;10.83;7.53;;;18.50;99.90;;;;;;5023186;28;20188;-66
2022/09/14 08:59:03;;;;;;;10.57;7.95;;;18.50;99.90;;;;;;5015453;28;20565;-66
2022/09/14 09:01:45;;;;;;;12.73;7.95;;;18.60;99.90;;;;;;5013636;28;20046;-67
2022/09/14 09:04:12;;;;;;;11.88;7.95;;;18.60;99.90;;;;;;5033924;28;20123;-66
2022/09/14 09:06:43;;;;;;;12.13;8.20;;;18.60;99.90;;;;;;5018828;28;20050;-67
2022/09/14 09:09:36;;;;;;;11.75;7.18;;;18.70;99.90;;;;;;5027788;28;20129;-67
2022/09/14 09:12:04;;;;;;;11.23;7.88;;;18.70;99.90;;;;;;5030688;28;20033;-67
2022/09/14 09:14:38;;;;;;;10.70;8.00;;;18.80;99.90;;;;;;5036012;28;20049;-66
2022/09/14 09:17:37;;;;;;;17.10;8.18;;;18.80;99.90;;;;;;5040559;28;20044;-67
2022/09/14 09:20:14;;;;;;;11.45;9.00;;;18.80;99.90;;;;;;5013801;28;20084;-66
2022/09/14 09:23:18;;;;;;;16.52;9.95;;;18.90;99.90;;;;;;5019244;28;20167;-67
2022/09/14 09:26:11;;;;;;;12.45;8.18;;;18.80;99.90;;;;;;5032724;28;20546;-67
2022/09/14 09:28:47;;;;;;;11.13;8.35;;;19.00;99.90;;;;;;5033735;28;20096;-67
2022/09/14 09:31:15;;;;;;;12.43;8.10;;;19.10;99.90;;;;;;5027016;28;20531;-68
2022/09/14 09:34:02;;;;;;;12.30;8.50;;;19.20;99.90;;;;;;5023835;28;20413;-67
2022/09/14 09:36:35;;;;;;;12.48;9.25;;;19.30;99.90;;;;;;5012947;28;20045;-66
2022/09/14 09:39:03;;;;;;;11.57;8.25;;;19.30;99.90;;;;;;5004437;28;20086;-66
2022/09/14 09:42:12;;;;;;;9.40;7.55;;;19.40;99.90;;;;;;5023167;28;20503;-66
2022/09/14 09:44:59;;;;;;;11.43;7.43;;;19.30;99.90;;;;;;5030091;28;20044;-66
2022/09/14 09:47:39;;;;;;;14.35;8.27;;;19.20;99.90;;;;;;5015966;28;20042;-67
2022/09/14 09:50:13;;;;;;;12.73;7.40;;;19.10;99.90;;;;;;5020479;28;20053;-66
2022/09/14 09:52:57;;;;;;;10.52;7.95;;;19.10;99.90;;;;;;5006707;28;20048;-66
2022/09/14 09:55:34;;;;;;;10.32;7.90;;;19.20;99.90;;;;;;5017996;28;20457;-66
2022/09/14 09:58:21;;;;;;;10.50;7.20;;;19.00;99.90;;;;;;5028629;28;20037;-68
2022/09/14 10:01:00;;;;;;;11.50;7.80;;;19.10;99.90;;;;;;5013559;28;20055;-66
2022/09/14 10:03:34;;;;;;;9.85;6.88;;;19.00;99.90;;;;;;5035453;28;20046;-66
2022/09/14 10:06:11;;;;;;;10.27;7.75;;;19.00;99.90;;;;;;5021292;28;20396;-68
2022/09/14 10:08:45;;;;;;;10.48;6.93;;;19.00;99.90;;;;;;5021856;28;20515;-66
2022/09/14 10:11:32;;;;;;;10.68;7.85;;;19.00;99.90;;;;;;5033011;28;20041;-66
2022/09/14 10:13:59;;;;;;;8.88;7.30;;;19.10;99.90;;;;;;5061599;28;20041;-67
2022/09/14 10:16:36;;;;;;;10.05;7.07;;;19.10;99.90;;;;;;5033899;28;20048;-67
2022/09/14 10:19:19;;;;;;;10.23;7.13;;;19.20;99.90;;;;;;5042072;28;20367;-67
2022/09/14 10:22:04;;;;;;;8.63;7.18;;;19.40;99.90;;;;;;5023931;28;20073;-67
2022/09/14 10:24:34;;;;;;;11.02;6.40;;;19.70;99.90;;;;;;5015350;28;20479;-67
2022/09/14 10:27:01;;;;;;;8.60;6.53;;;19.90;99.90;;;;;;5027811;28;20053;-67
2022/09/14 10:29:40;;;;;;;9.77;6.90;;;19.90;99.90;;;;;;5043100;28;20904;-67
2022/09/14 10:32:22;;;;;;;8.70;6.32;;;20.20;99.90;;;;;;5044033;28;20087;-65
2022/09/14 10:34:50;;;;;;;9.05;5.82;;;20.50;99.90;;;;;;5024359;28;20484;-65
2022/09/14 10:37:49;;;;;;;9.80;7.22;;;20.70;99.90;;;;;;5020254;28;20710;-66
2022/09/14 10:40:27;;;;;;;10.48;6.93;;;20.80;99.90;;;;;;5021971;28;20124;-68
2022/09/14 10:43:34;;;;;;;8.88;6.72;;;21.00;99.90;;;;;;5026612;28;20624;-68
2022/09/14 10:46:05;;;;;;;9.93;6.65;;;21.20;99.90;;;;;;5014535;28;20058;-67
2022/09/14 10:48:35;;;;;;;12.47;7.63;;;21.60;99.90;;;;;;5036200;28;20041;-66
2022/09/14 10:51:36;;;;;;;10.73;7.57;;;21.70;99.90;;;;;;5012591;28;20049;-66
2022/09/14 10:54:12;;;;;;;8.60;6.30;;;21.90;99.90;;;;;;5023004;28;20045;-67
2022/09/14 10:56:58;;;;;;;10.02;7.43;;;22.00;99.90;;;;;;5027537;28;20144;-68
2022/09/14 10:59:30;;;;;;;8.93;6.97;;;21.70;99.90;;;;;;5025274;28;20587;-66
2022/09/14 11:02:03;;;;;;;;;;;21.70;99.90;;;;;;5017096;28;20544;-67
2022/09/14 11:04:43;;;;;;;11.68;6.93;;;21.80;99.90;;;;;;5017642;28;19934;-67
2022/09/14 11:07:37;;;;;;;11.10;7.38;;;21.80;99.90;;;;;;5015781;28;20049;-67
2022/09/14 11:10:28;;;;;;;9.75;7.20;;;21.70;99.90;;;;;;5001309;28;20081;-67
2022/09/14 11:13:11;;;;;;;10.82;7.45;;;21.70;99.90;;;;;;5002869;28;20152;-67
2022/09/14 11:15:53;;;;;;;9.20;7.15;;;21.80;99.90;;;;;;5004777;28;20137;-66
2022/09/14 11:18:35;;;;;;;11.02;7.97;;;21.70;99.90;;;;;;4987200;28;20057;-67
2022/09/14 11:21:18;;;;;;;11.93;7.65;;;21.70;99.90;;;;;;4997412;28;20543;-67
2022/09/14 11:24:15;;;;;;;11.38;7.95;;;21.60;99.90;;;;;;5003498;28;20484;-66
2022/09/14 11:26:51;;;;;;;9.82;6.97;;;21.60;99.90;;;;;;4980677;28;20053;-66
2022/09/14 11:29:43;;;;;;;10.18;7.65;;;21.70;99.90;;;;;;5002133;28;20046;-67
2022/09/14 11:32:26;;;;;;;10.38;8.05;;;21.90;99.90;;;;;;5004353;28;20092;-68
2022/09/14 11:35:28;;;;;;;10.82;7.15;;;22.10;99.90;;;;;;5005533;28;20050;-66
2022/09/14 11:38:00;;;;;;;;;;;22.30;99.90;;;;;;5005718;28;20479;-66
2022/09/14 11:40:55;;;;;;;12.15;7.32;;;22.60;99.90;;;;;;4985963;28;20435;-68
2022/09/14 11:43:51;;;;;;;9.52;7.07;;;22.90;99.90;;;;;;5005124;28;20567;-68
2022/09/14 11:46:24;;;;;;;10.18;7.95;;;22.70;99.90;;;;;;5006532;28;20526;-66
2022/09/14 11:49:04;;;;;;;9.32;7.20;;;22.40;99.90;;;;;;5047925;28;20049;-69
2022/09/14 11:51:54;;;;;;;10.18;7.22;;;22.40;99.90;;;;;;5040529;28;20087;-67
2022/09/14 11:54:23;;;;;;;12.38;8.13;;;22.50;99.90;;;;;;5037530;28;20044;-67
2022/09/14 11:57:17;;;;;;;12.07;7.90;;;22.70;99.90;;;;;;5031038;28;20498;-69
2022/09/14 11:59:49;;;;;;;10.70;7.90;;;22.80;99.90;;;;;;5042414;28;20060;-67
2022/09/14 12:02:26;;;;;;;9.15;7.22;;;22.90;99.90;;;;;;5037396;28;20128;-67
2022/09/14 12:05:06;;;;;;;12.68;8.65;;;22.80;99.90;;;;;;5040347;28;20045;-67
2022/09/14 12:07:42;;;;;;;11.98;8.95;;;22.80;99.90;;;;;;5029806;28;20053;-67
2022/09/14 12:10:12;;;;;;;10.63;8.82;;;22.70;99.90;;;;;;5029669;28;20123;-68
2022/09/14 12:13:07;;;;;;;14.68;8.57;;;22.70;99.90;;;;;;5030060;28;20037;-69
2022/09/14 12:15:36;;;;;;;13.27;9.38;;;22.80;99.90;;;;;;5022764;28;20071;-67
2022/09/14 12:18:06;;;;;;;14.27;9.38;;;22.40;99.90;;;;;;5033295;28;20129;-67
2022/09/14 12:20:36;;;;;;;13.95;10.00;;;22.40;99.90;;;;;;5030221;28;20044;-67
2022/09/14 12:23:28;;;;;;;12.65;9.93;;;22.20;99.90;;;;;;5044286;28;20049;-67
2022/09/14 12:26:10;;;;;;;13.20;10.03;;;22.10;99.90;;;;;;5037765;28;20044;-67
2022/09/14 12:28:47;;;;;;;16.02;9.95;;;22.10;99.90;;;;;;5032144;28;20045;-67
2022/09/14 12:31:48;;;;;;;16.15;9.88;;;22.50;99.90;;;;;;5034245;28;20068;-67
2022/09/14 12:34:21;;;;;;;12.85;8.95;;;23.00;99.90;;;;;;5028955;28;20411;-67
2022/09/14 12:36:48;;;;;;;12.65;9.10;;;23.60;99.90;;;;;;5030439;28;20036;-67
2022/09/14 12:39:20;;;;;;;13.98;8.93;;;23.80;99.90;;;;;;5038859;28;20045;-67
2022/09/14 12:41:48;;;;;;;11.20;9.40;;;24.00;99.90;;;;;;5029441;28;20041;-68
2022/09/14 12:44:36;;;;;;;12.07;9.18;;;24.40;99.90;;;;;;5039365;28;20049;-67
2022/09/14 12:47:23;;;;;;;11.07;9.13;;;25.10;99.90;;;;;;5030564;28;20528;-66
2022/09/14 12:50:18;;;;;;;14.13;10.00;;;26.00;99.90;;;;;;5027697;28;20045;-69
2022/09/14 12:52:48;;;;;;;11.75;8.93;;;26.00;99.90;;;;;;5031139;28;20452;-67
2022/09/14 12:55:21;;;;;;;12.18;10.30;;;26.60;99.90;;;;;;5042330;28;20049;-68
2022/09/14 12:57:58;;;;;;;15.60;9.93;;;26.50;99.90;;;;;;5035872;28;20048;-68
2022/09/14 13:00:27;;;;;;;13.35;9.88;;;26.70;99.90;;;;;;5031263;28;20514;-72
2022/09/14 13:03:19;;;;;;;14.15;10.77;;;27.40;99.90;;;;;;5015202;28;20725;-67
2022/09/14 13:05:47;;;;;;;11.18;9.38;;;28.00;99.90;;;;;;5020198;28;20050;-68
2022/09/14 13:08:22;;;;;;;13.00;10.45;;;28.60;99.90;;;;;;5013387;28;20107;-67
2022/09/14 13:10:51;;;;;;;10.60;9.48;;;28.10;99.90;;;;;;5011143;28;20508;-67
2022/09/14 13:13:22;;;;;;;13.77;10.45;;;27.50;99.90;;;;;;5031923;28;20045;-68
2022/09/14 13:15:59;;;;;;;13.82;10.82;;;26.60;99.90;;;;;;5024225;28;20057;-68